Time;durP1;ratioP1;P1;durP2;ratioP2;P2;SDS_P1;SDS_P2;PMS_P1;PMS_P2;Temp;Humidity;BMP_temperature;BMP_pressure;BME280_temperature;BME280_humidity;BME280_pressure;Samples;Min_cycle;Max_cycle;Signal;HPM_P1;HPM_P2
2023/03/03 00:02:18;;;;;;;6.55;5.20;;;4.30;99.90;;;;;;6158944;23;20040;-90
2023/03/03 00:04:43;;;;;;;9.93;6.22;;;4.30;99.90;;;;;;6158599;23;20092;-89
2023/03/03 00:07:10;;;;;;;12.43;6.20;;;4.30;99.90;;;;;;6158353;23;20407;-89
2023/03/03 00:09:36;;;;;;;8.15;6.22;;;4.30;99.90;;;;;;6160388;23;20021;-88
2023/03/03 00:12:25;;;;;;;10.27;5.93;;;4.20;99.90;;;;;;6188418;23;20444;-89
2023/03/03 00:14:51;;;;;;;7.68;6.00;;;4.20;99.90;;;;;;6161775;23;20032;-89
2023/03/03 00:17:25;;;;;;;7.72;5.40;;;4.20;99.90;;;;;;6186755;23;19998;-89
2023/03/03 00:19:51;;;;;;;8.82;5.45;;;4.20;99.90;;;;;;6160597;23;20012;-89
2023/03/03 00:22:29;;;;;;;6.88;5.20;;;4.10;99.90;;;;;;6160855;23;20314;-88
2023/03/03 00:24:59;;;;;;;7.57;5.22;;;4.10;99.90;;;;;;6160638;23;20181;-89
2023/03/03 00:27:25;;;;;;;7.10;5.32;;;4.20;99.90;;;;;;6160569;23;20009;-89
2023/03/03 00:29:56;;;;;;;7.85;5.32;;;4.20;99.90;;;;;;6160800;23;20519;-89
2023/03/03 00:32:49;;;;;;;8.18;5.05;;;4.20;99.90;;;;;;6160582;23;20058;-88
2023/03/03 00:35:29;;;;;;;7.63;5.47;;;4.20;99.90;;;;;;6160215;23;20029;-89
2023/03/03 00:37:57;;;;;;;6.50;5.03;;;4.10;99.90;;;;;;6160449;23;20009;-89
2023/03/03 00:40:37;;;;;;;8.25;5.60;;;4.20;99.90;;;;;;6160973;23;20005;-90
2023/03/03 00:43:12;;;;;;;6.10;4.80;;;4.20;99.90;;;;;;6163958;23;20032;-90
2023/03/03 00:45:53;;;;;;;8.73;5.38;;;4.20;99.90;;;;;;6168831;23;20088;-91
2023/03/03 00:48:23;;;;;;;8.63;5.68;;;4.20;99.90;;;;;;6159912;23;20012;-90
2023/03/03 00:50:50;;;;;;;6.05;5.03;;;4.20;99.90;;;;;;6160097;23;20088;-90
2023/03/03 00:53:18;;;;;;;8.27;5.70;;;4.20;99.90;;;;;;6160016;23;20036;-90
2023/03/03 00:55:45;;;;;;;7.93;5.35;;;4.10;99.90;;;;;;6159547;23;20012;-90
2023/03/03 00:58:11;;;;;;;7.63;5.07;;;4.10;99.90;;;;;;6160040;23;20005;-90
2023/03/03 01:00:37;;;;;;;8.80;5.13;;;4.10;99.90;;;;;;6160099;23;20085;-89
2023/03/03 01:03:11;;;;;;;5.88;5.00;;;4.10;99.90;;;;;;6160048;23;20032;-90
2023/03/03 01:05:37;;;;;;;7.82;4.95;;;4.10;99.90;;;;;;6160150;23;20092;-90
2023/03/03 01:08:03;;;;;;;5.47;4.40;;;4.10;99.90;;;;;;6159681;23;20091;-89
2023/03/03 01:10:33;;;;;;;5.85;4.35;;;4.10;99.90;;;;;;6160448;23;20024;-89
2023/03/03 01:12:59;;;;;;;5.90;4.72;;;4.20;99.90;;;;;;6160448;23;20437;-89
2023/03/03 01:15:24;;;;;;;10.18;4.80;;;4.20;99.90;;;;;;6160133;23;20001;-89
2023/03/03 01:17:51;;;;;;;6.32;4.70;;;4.20;99.90;;;;;;6160451;23;20475;-89
2023/03/03 01:20:17;;;;;;;5.22;3.88;;;4.30;99.90;;;;;;6159602;23;20009;-89
2023/03/03 01:22:42;;;;;;;8.80;5.10;;;4.20;99.90;;;;;;6161405;23;20013;-90
2023/03/03 01:25:09;;;;;;;9.00;4.90;;;4.20;99.90;;;;;;6160679;23;20417;-89
2023/03/03 01:27:35;;;;;;;6.45;5.20;;;4.20;99.90;;;;;;6164110;23;20088;-89
2023/03/03 01:30:02;;;;;;;8.52;6.25;;;4.20;99.90;;;;;;6164355;23;20013;-89
2023/03/03 01:32:28;;;;;;;6.70;6.00;;;4.20;99.90;;;;;;6163833;23;20006;-88
2023/03/03 01:34:54;;;;;;;8.70;6.57;;;4.20;99.90;;;;;;6162726;23;20143;-88
2023/03/03 01:37:20;;;;;;;9.18;7.22;;;4.10;99.90;;;;;;6162200;23;20084;-89
2023/03/03 01:39:51;;;;;;;7.78;6.45;;;4.00;99.90;;;;;;6161766;23;20495;-89
2023/03/03 01:42:17;;;;;;;10.00;7.80;;;4.00;99.90;;;;;;6160274;23;20001;-89
2023/03/03 01:44:43;;;;;;;9.55;7.53;;;4.00;99.90;;;;;;6159985;23;20092;-89
2023/03/03 01:47:19;;;;;;;11.93;9.02;;;4.00;99.90;;;;;;6160068;23;20033;-88
2023/03/03 01:49:45;;;;;;;10.13;7.97;;;4.00;99.90;;;;;;6164216;23;20017;-88
2023/03/03 01:52:38;;;;;;;13.60;10.82;;;4.00;99.90;;;;;;6172153;23;20508;-90
2023/03/03 01:55:11;;;;;;;11.68;9.30;;;3.90;99.90;;;;;;6159682;23;20009;-89
2023/03/03 01:57:42;;;;;;;10.88;8.75;;;3.90;99.90;;;;;;6186189;23;19997;-88
2023/03/03 02:00:10;;;;;;;16.15;10.18;;;3.90;99.90;;;;;;6159529;23;20016;-88
2023/03/03 02:02:37;;;;;;;14.00;10.88;;;3.90;99.90;;;;;;6159414;23;20377;-88
2023/03/03 02:05:03;;;;;;;13.93;10.40;;;3.90;99.90;;;;;;6159273;23;20078;-88
2023/03/03 02:07:30;;;;;;;12.75;9.48;;;3.90;99.90;;;;;;6159062;23;20334;-89
2023/03/03 02:10:02;;;;;;;10.35;8.13;;;3.90;99.90;;;;;;6159543;23;20012;-90
2023/03/03 02:12:34;;;;;;;12.35;9.40;;;3.90;99.90;;;;;;6159833;23;20092;-90
2023/03/03 02:15:00;;;;;;;12.52;9.90;;;3.90;99.90;;;;;;6159364;23;20511;-91
2023/03/03 02:17:26;;;;;;;11.27;9.20;;;3.90;99.90;;;;;;6159405;23;20022;-90
2023/03/03 02:20:06;;;;;;;12.43;9.60;;;3.90;99.90;;;;;;6185718;23;20002;-91
2023/03/03 02:22:46;;;;;;;12.77;8.97;;;3.80;99.90;;;;;;6159102;23;20072;-90
2023/03/03 02:25:18;;;;;;;11.95;8.80;;;3.90;99.90;;;;;;6159355;23;20454;-90
2023/03/03 02:27:44;;;;;;;10.55;7.90;;;3.80;99.90;;;;;;6159113;23;20059;-90
2023/03/03 02:30:14;;;;;;;9.70;7.78;;;3.80;99.90;;;;;;6159225;23;20103;-91
2023/03/03 02:32:40;;;;;;;9.45;7.75;;;3.80;99.90;;;;;;6159528;23;20016;-90
2023/03/03 02:35:26;;;;;;;10.13;8.00;;;3.80;99.90;;;;;;6159108;23;20013;-90
2023/03/03 02:37:54;;;;;;;11.73;7.40;;;3.70;99.90;;;;;;6159021;23;20013;-90
2023/03/03 02:40:23;;;;;;;15.20;9.15;;;3.70;99.90;;;;;;6159397;23;20055;-89
2023/03/03 02:42:52;;;;;;;12.00;9.15;;;3.70;99.90;;;;;;6159146;23;20009;-91
2023/03/03 02:45:18;;;;;;;12.23;9.15;;;3.60;99.90;;;;;;6158997;23;20005;-90
2023/03/03 02:47:50;;;;;;;12.45;9.65;;;3.60;99.90;;;;;;6158852;23;20031;-90
2023/03/03 02:50:16;;;;;;;13.27;10.00;;;3.50;99.90;;;;;;6158806;23;20013;-90
2023/03/03 02:52:41;;;;;;;13.40;9.88;;;3.60;99.90;;;;;;6159334;23;20158;-90
2023/03/03 02:55:08;;;;;;;12.60;9.50;;;3.60;99.90;;;;;;6159179;23;20009;-90
2023/03/03 02:57:33;;;;;;;14.45;10.40;;;3.60;99.90;;;;;;6158863;23;20092;-89
2023/03/03 02:59:59;;;;;;;15.07;10.18;;;3.60;99.90;;;;;;6159172;23;20033;-90
2023/03/03 03:02:26;;;;;;;14.52;10.82;;;3.50;99.90;;;;;;6163184;23;20008;-89
2023/03/03 03:04:51;;;;;;;14.20;10.35;;;3.50;99.90;;;;;;6161036;23;20345;-90
2023/03/03 03:07:17;;;;;;;16.83;11.30;;;3.50;99.90;;;;;;6159189;23;20007;-90
2023/03/03 03:09:43;;;;;;;16.65;11.30;;;3.50;99.90;;;;;;6159061;23;20017;-90
2023/03/03 03:12:09;;;;;;;15.00;10.70;;;3.50;99.90;;;;;;6159025;23;19997;-89
2023/03/03 03:14:34;;;;;;;16.05;11.20;;;3.50;99.90;;;;;;6159198;23;20444;-89
2023/03/03 03:17:00;;;;;;;15.77;11.43;;;3.50;99.90;;;;;;6158935;23;20432;-90
2023/03/03 03:19:28;;;;;;;13.75;10.18;;;3.50;99.90;;;;;;6158972;23;20461;-90
2023/03/03 03:21:53;;;;;;;15.45;10.88;;;3.60;99.90;;;;;;6158710;23;20008;-89
2023/03/03 03:24:19;;;;;;;15.32;10.63;;;3.50;99.90;;;;;;6158797;23;20368;-90
2023/03/03 03:26:44;;;;;;;15.23;11.13;;;3.50;99.90;;;;;;6158825;23;20021;-89
2023/03/03 03:29:10;;;;;;;20.25;12.35;;;3.50;99.90;;;;;;6158926;23;20515;-90
2023/03/03 03:31:36;;;;;;;16.48;11.05;;;3.50;99.90;;;;;;6159199;23;20089;-89
2023/03/03 03:34:02;;;;;;;18.73;11.35;;;3.50;99.90;;;;;;6159047;23;20092;-89
2023/03/03 03:36:27;;;;;;;15.60;11.18;;;3.50;99.90;;;;;;6159057;23;20368;-91
2023/03/03 03:38:53;;;;;;;16.58;12.43;;;3.60;99.90;;;;;;6158804;23;20005;-91
2023/03/03 03:41:19;;;;;;;15.63;11.80;;;3.50;99.90;;;;;;6158672;23;20453;-89
2023/03/03 03:43:44;;;;;;;17.83;12.05;;;3.50;99.90;;;;;;6160199;23;20014;-90
2023/03/03 03:46:10;;;;;;;17.67;12.50;;;3.50;99.90;;;;;;6160913;23;19997;-91
2023/03/03 03:48:36;;;;;;;18.05;12.52;;;3.50;99.90;;;;;;6160714;23;20009;-90
2023/03/03 03:51:02;;;;;;;19.35;12.98;;;3.60;99.90;;;;;;6161252;23;20398;-90
2023/03/03 03:53:28;;;;;;;17.77;12.27;;;3.60;99.90;;;;;;6160852;23;20499;-90
2023/03/03 03:55:53;;;;;;;16.90;12.23;;;3.60;99.90;;;;;;6160660;23;20005;-90
2023/03/03 03:58:19;;;;;;;17.05;12.25;;;3.60;99.90;;;;;;6160627;23;20005;-89
2023/03/03 04:00:46;;;;;;;18.75;12.65;;;3.50;99.90;;;;;;6160681;23;20329;-89
2023/03/03 04:03:15;;;;;;;15.73;11.15;;;3.60;99.90;;;;;;6160103;23;20009;-89
2023/03/03 04:05:41;;;;;;;15.98;10.82;;;3.50;99.90;;;;;;6186569;23;20005;-89
2023/03/03 04:08:07;;;;;;;17.80;11.70;;;3.60;99.90;;;;;;6160551;23;20096;-89
2023/03/03 04:10:32;;;;;;;17.33;11.73;;;3.50;99.90;;;;;;6161825;23;20049;-90
2023/03/03 04:12:58;;;;;;;20.00;11.38;;;3.50;99.90;;;;;;6160901;23;20060;-91
2023/03/03 04:15:23;;;;;;;16.52;11.45;;;3.50;99.90;;;;;;6174811;23;20031;-89
2023/03/03 04:17:49;;;;;;;16.23;10.38;;;3.60;99.90;;;;;;6160650;23;20016;-90
2023/03/03 04:20:15;;;;;;;14.07;9.27;;;3.60;99.90;;;;;;6160743;23;20033;-89
2023/03/03 04:22:42;;;;;;;13.77;9.63;;;3.60;99.90;;;;;;6160447;23;20056;-89
2023/03/03 04:25:11;;;;;;;12.75;9.10;;;3.60;99.90;;;;;;6160057;23;20021;-90
2023/03/03 04:27:37;;;;;;;14.13;9.35;;;3.60;99.90;;;;;;6160296;23;20024;-90
2023/03/03 04:30:05;;;;;;;13.43;9.30;;;3.60;99.90;;;;;;6160667;23;20032;-90
2023/03/03 04:32:32;;;;;;;11.15;7.75;;;3.60;99.90;;;;;;6160114;23;20031;-90
2023/03/03 04:34:58;;;;;;;9.57;6.97;;;3.60;99.90;;;;;;6160298;23;20009;-91
2023/03/03 04:37:24;;;;;;;9.00;6.60;;;3.60;99.90;;;;;;6160402;23;20083;-90
2023/03/03 04:39:49;;;;;;;10.23;6.82;;;3.60;99.90;;;;;;6160391;23;20063;-90
2023/03/03 04:42:15;;;;;;;9.13;6.15;;;3.60;99.90;;;;;;6160309;23;20063;-91
2023/03/03 04:44:41;;;;;;;8.82;6.60;;;3.60;99.90;;;;;;6160204;23;20012;-89
2023/03/03 04:47:06;;;;;;;8.35;6.35;;;3.50;99.90;;;;;;6160110;23;20092;-89
2023/03/03 04:49:32;;;;;;;8.50;6.57;;;3.50;99.90;;;;;;6160164;23;20071;-90
2023/03/03 04:51:58;;;;;;;8.57;6.75;;;3.50;99.90;;;;;;6160170;23;20031;-90
2023/03/03 04:54:24;;;;;;;9.07;6.75;;;3.50;99.90;;;;;;6186781;23;20012;-90
2023/03/03 04:56:50;;;;;;;9.05;6.97;;;3.50;99.90;;;;;;6162958;23;20006;-90
2023/03/03 04:59:15;;;;;;;8.80;6.50;;;3.50;99.90;;;;;;6164040;23;20009;-89
2023/03/03 05:01:41;;;;;;;8.45;6.65;;;3.40;99.90;;;;;;6159780;23;20075;-89
2023/03/03 05:04:07;;;;;;;9.77;6.10;;;3.40;99.90;;;;;;6159885;23;20056;-90
2023/03/03 05:06:33;;;;;;;8.95;6.15;;;3.40;99.90;;;;;;6159870;23;20083;-90
2023/03/03 05:08:58;;;;;;;8.00;5.88;;;3.50;99.90;;;;;;6159999;23;20369;-90
2023/03/03 05:11:24;;;;;;;6.80;4.40;;;3.50;99.90;;;;;;6159904;23;20020;-90
2023/03/03 05:13:50;;;;;;;8.52;5.00;;;3.50;99.90;;;;;;6160203;23;20032;-90
2023/03/03 05:16:16;;;;;;;7.22;5.43;;;3.50;99.90;;;;;;6159813;23;20016;-90
2023/03/03 05:18:41;;;;;;;6.82;4.65;;;3.60;99.90;;;;;;6159949;23;20491;-90
2023/03/03 05:21:07;;;;;;;7.22;4.90;;;3.60;99.90;;;;;;6159927;23;20356;-90
2023/03/03 05:23:33;;;;;;;9.15;5.78;;;3.60;99.90;;;;;;6159558;23;20005;-90
2023/03/03 05:25:58;;;;;;;8.07;5.72;;;3.60;99.90;;;;;;6159925;23;20020;-90
2023/03/03 05:28:24;;;;;;;7.75;5.43;;;3.60;99.90;;;;;;6159923;23;20016;-90
2023/03/03 05:30:50;;;;;;;8.18;6.47;;;3.60;99.90;;;;;;6159376;23;20080;-90
2023/03/03 05:33:16;;;;;;;7.95;5.63;;;3.60;99.90;;;;;;6160220;23;20009;-90
2023/03/03 05:35:43;;;;;;;6.72;6.03;;;3.50;99.90;;;;;;6160954;23;20020;-90
2023/03/03 05:38:09;;;;;;;8.63;5.32;;;3.50;99.90;;;;;;6160882;23;20479;-89
2023/03/03 05:40:35;;;;;;;7.20;5.47;;;3.50;99.90;;;;;;6160408;23;20063;-89
2023/03/03 05:43:00;;;;;;;6.22;3.63;;;3.50;99.90;;;;;;6160018;23;20088;-89
2023/03/03 05:45:26;;;;;;;4.10;3.58;;;3.50;99.90;;;;;;6160351;23;20005;-89
2023/03/03 05:47:52;;;;;;;5.57;3.20;;;3.50;99.90;;;;;;6160956;23;20448;-89
2023/03/03 05:50:20;;;;;;;4.88;3.33;;;3.40;99.90;;;;;;6160101;23;20444;-90
2023/03/03 05:52:52;;;;;;;3.55;3.17;;;3.40;99.90;;;;;;6159675;23;20008;-89
2023/03/03 05:55:18;;;;;;;2.97;2.65;;;3.40;99.90;;;;;;6159947;23;20436;-88
2023/03/03 05:57:44;;;;;;;5.40;3.38;;;3.40;99.90;;;;;;6164068;23;20001;-89
2023/03/03 06:00:11;;;;;;;3.53;3.22;;;3.40;99.90;;;;;;6166537;23;20112;-89
2023/03/03 06:02:37;;;;;;;4.18;2.97;;;3.40;99.90;;;;;;6168840;23;20005;-89
2023/03/03 06:05:03;;;;;;;3.20;2.90;;;3.40;99.90;;;;;;6167723;23;20119;-88
2023/03/03 06:07:29;;;;;;;4.05;2.90;;;3.40;99.90;;;;;;6165548;23;20012;-89
2023/03/03 06:09:54;;;;;;;4.13;3.72;;;3.40;99.90;;;;;;6165530;23;20066;-88
2023/03/03 06:12:21;;;;;;;4.43;2.72;;;3.40;99.90;;;;;;6160847;23;20033;-88
2023/03/03 06:14:46;;;;;;;2.97;2.50;;;3.40;99.90;;;;;;6161201;23;20005;-89
2023/03/03 06:17:12;;;;;;;5.03;3.70;;;3.40;99.90;;;;;;6160468;23;20032;-90
2023/03/03 06:19:38;;;;;;;3.33;2.80;;;3.30;99.90;;;;;;6160476;23;20044;-90
2023/03/03 06:22:03;;;;;;;1.98;1.70;;;3.30;99.90;;;;;;6159844;23;20306;-90
2023/03/03 06:24:30;;;;;;;4.25;1.95;;;3.30;99.90;;;;;;6159722;23;20083;-90
2023/03/03 06:27:00;;;;;;;2.53;1.95;;;3.30;99.90;;;;;;6159844;23;20016;-91
2023/03/03 06:29:26;;;;;;;2.37;2.03;;;3.30;99.90;;;;;;6159581;23;20017;-90
2023/03/03 06:31:52;;;;;;;2.10;1.80;;;3.30;99.90;;;;;;6160082;23;20051;-89
2023/03/03 06:34:18;;;;;;;2.33;1.85;;;3.40;99.90;;;;;;6160411;23;20433;-90
2023/03/03 06:36:44;;;;;;;1.90;1.58;;;3.40;99.90;;;;;;6170272;23;20012;-89
2023/03/03 06:39:11;;;;;;;2.92;1.70;;;3.40;99.90;;;;;;6186201;23;20016;-91
2023/03/03 06:41:37;;;;;;;3.03;1.58;;;3.40;99.90;;;;;;6159801;23;20344;-91
2023/03/03 06:44:03;;;;;;;5.00;1.80;;;3.30;99.90;;;;;;6159495;23;20008;-90
2023/03/03 06:46:29;;;;;;;2.97;1.45;;;3.30;99.90;;;;;;6159236;23;20005;-89
2023/03/03 06:48:55;;;;;;;3.08;1.58;;;3.30;99.90;;;;;;6159640;23;20539;-90
2023/03/03 06:51:25;;;;;;;1.40;1.20;;;3.30;99.90;;;;;;6159880;23;20008;-90
2023/03/03 06:53:54;;;;;;;2.45;1.40;;;3.30;99.90;;;;;;6160092;23;20001;-90
2023/03/03 06:56:22;;;;;;;2.35;1.30;;;3.30;99.90;;;;;;6184573;23;20086;-89
2023/03/03 06:58:53;;;;;;;1.33;1.23;;;3.30;99.90;;;;;;6159319;23;20310;-90
2023/03/03 07:01:19;;;;;;;3.58;1.50;;;3.30;99.90;;;;;;6159394;23;20420;-89
2023/03/03 07:03:45;;;;;;;1.33;1.10;;;3.30;99.90;;;;;;6159591;23;20063;-89
2023/03/03 07:06:25;;;;;;;2.42;0.98;;;3.30;99.90;;;;;;6160100;23;20015;-89
2023/03/03 07:08:52;;;;;;;0.80;0.80;;;3.30;99.90;;;;;;6159635;23;20001;-89
2023/03/03 07:11:21;;;;;;;1.10;0.98;;;3.30;99.90;;;;;;6159137;23;20092;-89
2023/03/03 07:13:53;;;;;;;1.92;0.88;;;3.30;99.90;;;;;;6159021;23;20009;-89
2023/03/03 07:16:26;;;;;;;2.60;0.73;;;3.20;99.90;;;;;;6159456;23;20017;-90
2023/03/03 07:19:04;;;;;;;1.58;0.60;;;3.20;99.90;;;;;;6158880;23;20096;-90
2023/03/03 07:21:37;;;;;;;1.13;0.60;;;3.20;99.90;;;;;;6159643;23;20032;-90
2023/03/03 07:24:30;;;;;;;0.68;0.60;;;3.20;99.90;;;;;;6159473;23;20017;-90
2023/03/03 07:27:06;;;;;;;0.98;0.77;;;3.20;99.90;;;;;;6178612;23;20092;-91
2023/03/03 07:29:33;;;;;;;1.27;0.65;;;3.20;99.90;;;;;;6158898;23;20040;-91
2023/03/03 07:32:00;;;;;;;0.70;0.70;;;3.20;99.90;;;;;;6157919;23;20005;-90
2023/03/03 07:34:37;;;;;;;2.03;1.25;;;3.10;99.90;;;;;;6158656;23;20009;-90
2023/03/03 07:37:16;;;;;;;1.25;1.10;;;3.10;99.90;;;;;;6158491;23;20726;-91
2023/03/03 07:39:46;;;;;;;1.52;1.23;;;3.20;99.90;;;;;;6159214;23;20040;-90
2023/03/03 07:42:27;;;;;;;1.50;1.20;;;3.10;99.90;;;;;;6158773;23;20005;-90
2023/03/03 07:44:56;;;;;;;3.13;1.08;;;3.20;99.90;;;;;;6158525;23;20236;-92
2023/03/03 07:47:28;;;;;;;1.13;1.00;;;3.20;99.90;;;;;;6159558;23;20009;-91
2023/03/03 07:49:57;;;;;;;1.30;1.20;;;3.20;99.90;;;;;;6159392;23;20344;-90
2023/03/03 07:52:38;;;;;;;1.08;0.98;;;3.20;99.90;;;;;;6159489;23;20076;-90
2023/03/03 07:55:40;;;;;;;1.58;1.40;;;3.20;99.90;;;;;;6159663;23;20016;-91
2023/03/03 07:58:37;;;;;;;0.68;0.65;;;3.20;99.90;;;;;;6075532;23;20067;-95
2023/03/03 08:01:39;;;;;;;1.08;0.90;;;3.30;99.90;;;;;;6059389;23;20010;-93
2023/03/03 08:04:49;;;;;;;1.13;1.02;;;3.30;99.90;;;;;;6068325;23;20062;-94
2023/03/03 08:07:18;;;;;;;1.33;1.02;;;3.40;99.90;;;;;;6070346;23;20023;-95
2023/03/03 08:09:58;;;;;;;0.57;0.57;;;3.50;99.90;;;;;;6069207;23;20011;-92
2023/03/03 08:12:41;;;;;;;1.98;0.93;;;3.50;99.90;;;;;;6068730;23;20015;-92
2023/03/03 08:15:25;;;;;;;1.10;0.98;;;3.50;99.90;;;;;;6046560;23;20045;-93
2023/03/03 08:17:53;;;;;;;1.10;1.00;;;3.50;99.90;;;;;;6068497;23;20007;-92
2023/03/03 08:20:30;;;;;;;1.52;1.27;;;3.60;99.90;;;;;;6067691;23;20003;-93
2023/03/03 08:22:56;;;;;;;1.45;1.10;;;3.60;99.90;;;;;;6068469;23;20027;-93
2023/03/03 08:25:22;;;;;;;1.88;1.20;;;3.60;99.90;;;;;;6067438;23;20010;-93
2023/03/03 08:27:48;;;;;;;3.05;1.15;;;3.60;99.90;;;;;;6066966;23;20059;-93
2023/03/03 08:30:14;;;;;;;2.05;1.00;;;3.70;99.90;;;;;;6068825;23;20151;-93
2023/03/03 08:32:39;;;;;;;1.42;1.00;;;3.70;99.90;;;;;;6117772;23;20001;-93
2023/03/03 08:35:05;;;;;;;2.03;1.00;;;3.70;99.90;;;;;;6157421;23;20015;-94
2023/03/03 08:37:31;;;;;;;1.23;0.93;;;3.70;99.90;;;;;;6157714;23;20006;-93
2023/03/03 08:39:57;;;;;;;1.48;1.25;;;3.70;99.90;;;;;;6158662;23;20468;-93
2023/03/03 08:42:42;;;;;;;1.58;1.35;;;3.80;99.90;;;;;;6159838;23;20006;-94
2023/03/03 08:45:10;;;;;;;1.90;1.70;;;3.80;99.90;;;;;;6159520;23;20010;-94
2023/03/03 08:48:16;;;;;;;2.38;1.35;;;3.80;99.90;;;;;;6162749;23;20001;-91
2023/03/03 08:50:43;;;;;;;2.78;1.40;;;3.80;99.90;;;;;;6177781;23;20013;-93
2023/03/03 08:53:11;;;;;;;2.42;1.52;;;3.80;99.90;;;;;;6164860;23;20050;-93
2023/03/03 08:55:38;;;;;;;1.73;1.60;;;3.90;99.90;;;;;;6157434;23;20084;-93
2023/03/03 08:58:04;;;;;;;2.70;1.90;;;3.80;99.90;;;;;;6157110;23;20032;-91
2023/03/03 09:00:29;;;;;;;1.55;1.27;;;3.90;99.90;;;;;;6156295;23;20345;-92
2023/03/03 09:02:55;;;;;;;1.63;1.38;;;3.90;99.90;;;;;;6157201;23;20033;-93
2023/03/03 09:05:22;;;;;;;2.15;1.50;;;3.90;99.90;;;;;;6160691;23;20719;-94
2023/03/03 09:07:50;;;;;;;1.10;1.00;;;3.90;99.90;;;;;;6161476;23;20129;-94
2023/03/03 09:10:25;;;;;;;1.20;0.80;;;3.90;99.90;;;;;;6162154;23;20017;-92
2023/03/03 09:12:50;;;;;;;1.30;0.80;;;3.90;99.90;;;;;;6164415;23;20001;-93
2023/03/03 09:15:19;;;;;;;1.50;0.80;;;3.90;99.90;;;;;;6164627;23;20016;-93
2023/03/03 09:17:45;;;;;;;0.60;0.60;;;3.90;99.90;;;;;;6163842;23;20444;-92
2023/03/03 09:20:21;;;;;;;1.25;1.00;;;4.00;99.90;;;;;;6162670;23;20005;-92
2023/03/03 09:22:48;;;;;;;1.45;1.20;;;4.00;99.90;;;;;;6163015;23;20009;-91
2023/03/03 09:25:23;;;;;;;1.50;1.20;;;4.00;99.90;;;;;;6162419;23;20080;-93
2023/03/03 09:27:52;;;;;;;1.85;1.63;;;4.00;99.90;;;;;;6162870;23;20043;-92
2023/03/03 09:30:35;;;;;;;1.90;1.50;;;4.10;99.90;;;;;;6163759;23;20020;-92
2023/03/03 09:33:16;;;;;;;2.17;1.60;;;4.10;99.90;;;;;;6162364;23;20108;-92
2023/03/03 09:35:41;;;;;;;;;;;4.10;99.90;;;;;;6164339;23;20005;-91
2023/03/03 09:38:29;;;;;;;2.80;1.48;;;4.10;99.90;;;;;;6187452;23;19907;-93
2023/03/03 09:41:10;;;;;;;1.60;1.30;;;4.10;99.90;;;;;;6188006;23;20012;-92
2023/03/03 09:44:16;;;;;;;4.60;1.63;;;4.10;99.90;;;;;;6164131;23;20068;-93
2023/03/03 09:46:47;;;;;;;4.28;1.60;;;4.10;99.90;;;;;;6166020;23;20183;-92
2023/03/03 09:49:16;;;;;;;4.97;2.03;;;4.10;99.90;;;;;;6182033;23;20009;-93
2023/03/03 09:52:02;;;;;;;3.10;1.73;;;4.10;99.90;;;;;;6181784;23;20032;-93
2023/03/03 09:54:54;;;;;;;1.50;1.40;;;4.10;99.90;;;;;;6179544;23;20001;-92
2023/03/03 09:57:31;;;;;;;1.30;1.20;;;4.10;99.90;;;;;;6163200;23;20005;-93
2023/03/03 10:00:14;;;;;;;1.20;1.10;;;4.20;99.90;;;;;;6161969;23;20005;-93
2023/03/03 10:03:02;;;;;;;0.93;0.85;;;4.20;99.90;;;;;;6162353;23;20436;-94
2023/03/03 10:05:48;;;;;;;0.98;0.98;;;4.30;99.90;;;;;;6162753;23;20013;-92
2023/03/03 10:08:34;;;;;;;2.13;1.40;;;4.30;99.90;;;;;;6162464;23;20001;-92
2023/03/03 10:11:03;;;;;;;1.58;1.27;;;4.30;99.90;;;;;;6164892;23;20100;-92
2023/03/03 10:13:56;;;;;;;3.30;1.77;;;4.30;99.90;;;;;;6163036;23;20005;-91
2023/03/03 10:16:43;;;;;;;3.90;1.95;;;4.40;99.90;;;;;;6161489;23;20051;-92
2023/03/03 10:19:31;;;;;;;1.75;1.60;;;4.40;99.90;;;;;;6161477;23;20001;-92
2023/03/03 10:21:59;;;;;;;2.00;1.63;;;4.30;99.90;;;;;;6143198;23;20011;-94
2023/03/03 10:24:33;;;;;;;3.08;1.77;;;4.40;99.90;;;;;;6162635;23;20009;-92
2023/03/03 10:27:27;;;;;;;2.35;1.70;;;4.40;99.90;;;;;;6163723;23;20441;-95
2023/03/03 10:30:28;;;;;;;2.45;1.98;;;4.40;99.90;;;;;;6162067;23;20032;-92
2023/03/03 10:33:04;;;;;;;2.20;2.00;;;4.40;99.90;;;;;;6104074;23;20013;-92
2023/03/03 10:36:29;;;;;;;2.15;1.95;;;4.40;99.90;;;;;;6172854;23;20011;-92
2023/03/03 10:39:21;;;;;;;2.42;2.20;;;4.40;99.90;;;;;;6080496;23;20003;-92
2023/03/03 10:42:03;;;;;;;3.17;2.40;;;4.40;99.90;;;;;;6082426;23;20006;-92
2023/03/03 10:44:44;;;;;;;2.25;1.67;;;4.50;99.90;;;;;;6054639;23;20015;-91
2023/03/03 10:47:15;;;;;;;;;;;4.40;99.90;;;;;;6049726;23;20089;-93
2023/03/03 10:49:41;;;;;;;;;;;4.50;99.90;;;;;;6044046;23;19965;-92
2023/03/03 10:52:32;;;;;;;3.75;2.30;;;4.50;99.90;;;;;;6043696;23;19901;-93
2023/03/03 10:55:16;;;;;;;4.63;2.30;;;4.50;99.90;;;;;;6044264;23;20002;-93
2023/03/03 10:57:55;;;;;;;5.97;2.50;;;4.60;99.90;;;;;;6043835;23;20007;-93
2023/03/03 11:00:30;;;;;;;4.63;2.78;;;4.70;99.90;;;;;;6043455;23;20015;-93
2023/03/03 11:03:26;;;;;;;4.50;2.45;;;4.70;99.90;;;;;;6067371;23;20451;-93
2023/03/03 11:06:00;;;;;;;2.78;2.30;;;4.80;99.90;;;;;;6043793;23;20023;-93
2023/03/03 11:08:51;;;;;;;3.55;2.42;;;4.90;99.90;;;;;;6055024;23;20362;-93
2023/03/03 11:11:28;;;;;;;4.90;2.50;;;5.00;99.90;;;;;;6156233;23;20141;-92
2023/03/03 11:14:14;;;;;;;4.20;2.75;;;5.00;99.90;;;;;;6155931;23;19997;-93
2023/03/03 11:17:10;;;;;;;3.95;2.67;;;5.10;99.90;;;;;;6156273;23;20052;-93
2023/03/03 11:20:09;;;;;;;3.55;2.47;;;5.10;99.90;;;;;;6131072;23;20529;-93
2023/03/03 11:23:16;;;;;;;3.47;2.20;;;5.20;99.90;;;;;;6112292;23;20033;-94
2023/03/03 11:26:08;;;;;;;4.25;2.50;;;5.20;99.90;;;;;;6155426;23;20004;-93
2023/03/03 11:29:01;;;;;;;4.45;3.08;;;5.20;99.90;;;;;;6156280;23;20459;-94
2023/03/03 11:31:45;;;;;;;3.90;2.80;;;5.20;99.90;;;;;;6131132;23;20009;-93
2023/03/03 11:34:35;;;;;;;3.53;2.33;;;5.30;99.90;;;;;;6155594;23;20008;-94
2023/03/03 11:37:22;;;;;;;5.75;2.55;;;5.40;99.90;;;;;;6155765;23;20013;-94
2023/03/03 11:39:52;;;;;;;4.15;2.15;;;5.40;99.90;;;;;;6156040;23;20009;-94
2023/03/03 11:42:39;;;;;;;4.43;1.92;;;5.50;99.90;;;;;;6155635;23;20010;-93
2023/03/03 11:45:19;;;;;;;3.70;2.17;;;5.50;99.90;;;;;;6155124;23;20484;-92
2023/03/03 11:48:14;;;;;;;1.83;1.55;;;5.50;99.90;;;;;;6155260;23;20013;-93
2023/03/03 11:50:45;;;;;;;2.03;1.60;;;5.60;99.90;;;;;;6119542;23;20017;-93
2023/03/03 11:53:53;;;;;;;3.08;1.95;;;5.60;99.90;;;;;;6155214;23;20005;-93
2023/03/03 11:56:23;;;;;;;2.47;1.70;;;5.60;99.90;;;;;;6112144;23;20042;-92
2023/03/03 11:59:13;;;;;;;4.30;1.92;;;5.60;99.90;;;;;;6154354;23;20002;-94
2023/03/03 12:01:52;;;;;;;3.55;2.28;;;5.60;99.90;;;;;;6155466;23;20355;-92
2023/03/03 12:04:43;;;;;;;2.22;2.03;;;5.70;99.90;;;;;;6174848;23;20164;-92
2023/03/03 12:07:29;;;;;;;3.72;2.15;;;5.80;99.90;;;;;;6162296;23;20013;-92
2023/03/03 12:10:22;;;;;;;5.25;2.20;;;5.90;99.90;;;;;;6142249;23;20017;-93
2023/03/03 12:13:02;;;;;;;2.53;1.83;;;6.00;99.90;;;;;;6162051;23;20001;-93
2023/03/03 12:16:15;;;;;;;4.00;2.40;;;6.10;99.90;;;;;;6162642;23;20015;-94
2023/03/03 12:19:03;;;;;;;2.97;2.47;;;6.10;99.90;;;;;;6044154;23;20034;-94
2023/03/03 12:21:44;;;;;;;4.57;2.42;;;6.10;99.90;;;;;;6068222;23;20064;-93
2023/03/03 12:24:16;;;;;;;;;;;6.10;99.90;;;;;;6068786;23;20003;-93
2023/03/03 12:27:21;;;;;;;5.30;2.50;;;6.10;99.90;;;;;;6045044;23;19910;-94
2023/03/03 12:30:08;;;;;;;3.67;2.17;;;6.00;99.90;;;;;;6031356;23;20070;-93
2023/03/03 12:32:52;;;;;;;5.28;2.50;;;6.00;99.90;;;;;;6068371;23;20030;-93
2023/03/03 12:35:36;;;;;;;2.67;2.22;;;5.90;99.90;;;;;;6068608;23;19999;-93
2023/03/03 12:38:28;;;;;;;2.97;2.42;;;5.90;99.90;;;;;;6068391;23;20093;-93
2023/03/03 12:41:10;;;;;;;4.40;2.85;;;5.80;99.90;;;;;;6068692;23;20015;-92
2023/03/03 12:43:53;;;;;;;5.65;2.50;;;5.80;99.90;;;;;;6068511;23;20078;-92
2023/03/03 12:46:28;;;;;;;3.42;2.65;;;5.80;99.90;;;;;;6067838;23;20003;-92
2023/03/03 12:48:54;;;;;;;3.03;2.45;;;5.80;99.90;;;;;;6100867;23;20450;-93
2023/03/03 12:51:47;;;;;;;4.63;2.80;;;5.90;99.90;;;;;;6168647;23;20024;-94
2023/03/03 12:54:35;;;;;;;3.55;2.15;;;5.90;99.90;;;;;;6162448;23;20008;-93
2023/03/03 12:57:24;;;;;;;2.67;1.88;;;5.90;99.90;;;;;;6161570;23;20009;-94
2023/03/03 13:00:23;;;;;;;6.57;2.92;;;6.00;99.90;;;;;;6161666;23;20009;-93
2023/03/03 13:03:00;;;;;;;4.03;1.60;;;6.00;99.90;;;;;;6161618;23;20061;-93
2023/03/03 13:05:29;;;;;;;5.28;1.35;;;6.00;99.90;;;;;;6161293;23;20028;-93
2023/03/03 13:08:05;;;;;;;1.55;1.27;;;6.00;99.90;;;;;;6161807;23;20005;-93
2023/03/03 13:10:42;;;;;;;3.20;1.30;;;6.10;99.90;;;;;;6161462;23;20016;-94
2023/03/03 13:13:28;;;;;;;2.78;1.00;;;6.20;99.90;;;;;;6161461;23;20012;-94
2023/03/03 13:16:03;;;;;;;5.30;1.65;;;6.20;99.90;;;;;;6160779;23;20009;-93
2023/03/03 13:18:37;;;;;;;2.25;1.10;;;6.30;99.90;;;;;;6161718;23;20001;-93
2023/03/03 13:21:07;;;;;;;3.47;1.20;;;6.30;99.90;;;;;;6161798;23;20005;-93
2023/03/03 13:23:51;;;;;;;4.93;1.90;;;6.30;99.90;;;;;;6161451;23;20009;-94
2023/03/03 13:26:34;;;;;;;4.65;1.70;;;6.40;99.90;;;;;;6161685;23;20487;-93
2023/03/03 13:29:37;;;;;;;4.03;2.08;;;6.40;99.90;;;;;;6161082;23;20017;-92